sensor_id;sensor_type;location;lat;lon;timestamp;P1;durP1;ratioP1;P2;durP2;ratioP2
76477;SDS011;65309;49.790;18.972;2023-02-13T00:03:52;10.70;;;4.75;;
76477;SDS011;65309;49.790;18.972;2023-02-13T00:08:54;36.13;;;12.10;;
76477;SDS011;65309;49.790;18.972;2023-02-13T00:13:58;28.08;;;12.15;;
76477;SDS011;65309;49.790;18.972;2023-02-13T00:19:00;15.60;;;5.50;;
76477;SDS011;65309;49.790;18.972;2023-02-13T00:24:02;16.02;;;7.22;;
76477;SDS011;65309;49.790;18.972;2023-02-13T00:29:06;12.85;;;6.97;;
76477;SDS011;65309;49.790;18.972;2023-02-13T00:34:08;19.92;;;7.03;;
76477;SDS011;65309;49.790;18.972;2023-02-13T00:39:10;12.95;;;4.82;;
76477;SDS011;65309;49.790;18.972;2023-02-13T00:44:14;9.13;;;3.38;;
76477;SDS011;65309;49.790;18.972;2023-02-13T00:49:16;14.38;;;5.80;;
76477;SDS011;65309;49.790;18.972;2023-02-13T00:54:18;48.47;;;17.45;;
76477;SDS011;65309;49.790;18.972;2023-02-13T00:59:21;35.78;;;10.05;;
76477;SDS011;65309;49.790;18.972;2023-02-13T01:04:24;7.07;;;3.28;;
76477;SDS011;65309;49.790;18.972;2023-02-13T01:09:26;5.57;;;3.72;;
76477;SDS011;65309;49.790;18.972;2023-02-13T01:14:29;6.57;;;2.83;;
76477;SDS011;65309;49.790;18.972;2023-02-13T01:19:31;7.25;;;3.67;;
76477;SDS011;65309;49.790;18.972;2023-02-13T01:24:33;4.28;;;3.35;;
76477;SDS011;65309;49.790;18.972;2023-02-13T01:29:37;4.68;;;2.90;;
76477;SDS011;65309;49.790;18.972;2023-02-13T01:34:39;5.28;;;3.53;;
76477;SDS011;65309;49.790;18.972;2023-02-13T01:39:41;10.07;;;3.58;;
76477;SDS011;65309;49.790;18.972;2023-02-13T01:44:46;10.27;;;5.80;;
76477;SDS011;65309;49.790;18.972;2023-02-13T01:49:50;10.48;;;4.68;;
76477;SDS011;65309;49.790;18.972;2023-02-13T01:55:03;9.40;;;4.63;;
76477;SDS011;65309;49.790;18.972;2023-02-13T02:00:08;7.32;;;4.60;;
76477;SDS011;65309;49.790;18.972;2023-02-13T02:05:12;3.95;;;2.22;;
76477;SDS011;65309;49.790;18.972;2023-02-13T02:10:17;4.30;;;2.42;;
76477;SDS011;65309;49.790;18.972;2023-02-13T02:15:21;9.60;;;3.97;;
76477;SDS011;65309;49.790;18.972;2023-02-13T02:20:26;8.52;;;4.22;;
76477;SDS011;65309;49.790;18.972;2023-02-13T02:25:46;9.90;;;3.88;;
76477;SDS011;65309;49.790;18.972;2023-02-13T02:36:43;7.28;;;4.80;;
76477;SDS011;65309;49.790;18.972;2023-02-13T02:41:57;10.20;;;5.03;;
76477;SDS011;65309;49.790;18.972;2023-02-13T02:47:13;7.97;;;4.90;;
76477;SDS011;65309;49.790;18.972;2023-02-13T02:52:46;12.18;;;5.68;;
76477;SDS011;65309;49.790;18.972;2023-02-13T02:57:58;15.38;;;5.65;;
76477;SDS011;65309;49.790;18.972;2023-02-13T03:03:24;15.57;;;6.00;;
76477;SDS011;65309;49.790;18.972;2023-02-13T03:14:14;7.95;;;4.47;;
76477;SDS011;65309;49.790;18.972;2023-02-13T03:19:21;9.70;;;5.35;;
76477;SDS011;65309;49.790;18.972;2023-02-13T03:24:54;4.00;;;3.45;;
76477;SDS011;65309;49.790;18.972;2023-02-13T03:30:06;22.95;;;6.75;;
76477;SDS011;65309;49.790;18.972;2023-02-13T03:35:21;10.52;;;5.47;;
76477;SDS011;65309;49.790;18.972;2023-02-13T03:40:50;8.57;;;5.07;;
76477;SDS011;65309;49.790;18.972;2023-02-13T03:46:17;12.98;;;6.68;;
76477;SDS011;65309;49.790;18.972;2023-02-13T03:51:21;11.48;;;6.75;;
76477;SDS011;65309;49.790;18.972;2023-02-13T03:56:28;15.98;;;7.35;;
76477;SDS011;65309;49.790;18.972;2023-02-13T04:01:54;15.43;;;6.15;;
76477;SDS011;65309;49.790;18.972;2023-02-13T04:07:02;16.80;;;8.48;;
76477;SDS011;65309;49.790;18.972;2023-02-13T04:12:11;20.63;;;7.68;;
76477;SDS011;65309;49.790;18.972;2023-02-13T04:17:17;12.50;;;5.30;;
76477;SDS011;65309;49.790;18.972;2023-02-13T04:22:25;9.23;;;5.00;;
76477;SDS011;65309;49.790;18.972;2023-02-13T04:27:28;9.70;;;4.72;;
76477;SDS011;65309;49.790;18.972;2023-02-13T04:32:30;6.05;;;3.95;;
76477;SDS011;65309;49.790;18.972;2023-02-13T04:37:32;6.03;;;3.22;;
76477;SDS011;65309;49.790;18.972;2023-02-13T04:42:35;5.28;;;3.17;;
76477;SDS011;65309;49.790;18.972;2023-02-13T04:47:37;7.07;;;6.30;;
76477;SDS011;65309;49.790;18.972;2023-02-13T04:52:39;7.65;;;3.45;;
76477;SDS011;65309;49.790;18.972;2023-02-13T04:57:43;10.50;;;5.35;;
76477;SDS011;65309;49.790;18.972;2023-02-13T05:02:45;11.18;;;4.25;;
76477;SDS011;65309;49.790;18.972;2023-02-13T05:07:47;7.60;;;4.68;;
76477;SDS011;65309;49.790;18.972;2023-02-13T05:12:50;5.60;;;3.42;;
76477;SDS011;65309;49.790;18.972;2023-02-13T05:17:52;11.75;;;6.25;;
76477;SDS011;65309;49.790;18.972;2023-02-13T05:22:54;5.35;;;2.92;;
76477;SDS011;65309;49.790;18.972;2023-02-13T05:28:16;5.20;;;3.33;;
76477;SDS011;65309;49.790;18.972;2023-02-13T05:33:37;7.55;;;4.28;;
76477;SDS011;65309;49.790;18.972;2023-02-13T05:38:39;9.50;;;5.00;;
76477;SDS011;65309;49.790;18.972;2023-02-13T05:43:43;6.68;;;3.00;;
76477;SDS011;65309;49.790;18.972;2023-02-13T05:48:45;7.40;;;3.28;;
76477;SDS011;65309;49.790;18.972;2023-02-13T05:53:47;4.70;;;3.17;;
76477;SDS011;65309;49.790;18.972;2023-02-13T05:58:51;6.90;;;2.92;;
76477;SDS011;65309;49.790;18.972;2023-02-13T06:03:53;8.00;;;3.10;;
76477;SDS011;65309;49.790;18.972;2023-02-13T06:08:59;9.02;;;3.83;;
76477;SDS011;65309;49.790;18.972;2023-02-13T06:14:02;4.18;;;2.17;;
76477;SDS011;65309;49.790;18.972;2023-02-13T06:19:04;5.07;;;3.60;;
76477;SDS011;65309;49.790;18.972;2023-02-13T06:24:06;7.65;;;3.20;;
76477;SDS011;65309;49.790;18.972;2023-02-13T06:29:10;8.07;;;3.17;;
76477;SDS011;65309;49.790;18.972;2023-02-13T06:34:13;8.38;;;3.47;;
76477;SDS011;65309;49.790;18.972;2023-02-13T06:39:15;4.22;;;2.78;;
76477;SDS011;65309;49.790;18.972;2023-02-13T06:44:18;4.40;;;2.40;;
76477;SDS011;65309;49.790;18.972;2023-02-13T06:49:20;3.60;;;1.75;;
76477;SDS011;65309;49.790;18.972;2023-02-13T06:54:22;4.38;;;2.30;;
76477;SDS011;65309;49.790;18.972;2023-02-13T06:59:45;3.53;;;2.45;;
76477;SDS011;65309;49.790;18.972;2023-02-13T07:04:47;7.03;;;2.75;;
76477;SDS011;65309;49.790;18.972;2023-02-13T07:09:49;4.05;;;2.08;;
76477;SDS011;65309;49.790;18.972;2023-02-13T07:14:53;4.18;;;2.65;;
76477;SDS011;65309;49.790;18.972;2023-02-13T07:19:55;3.20;;;1.55;;
76477;SDS011;65309;49.790;18.972;2023-02-13T07:24:57;6.40;;;2.65;;
76477;SDS011;65309;49.790;18.972;2023-02-13T07:30:01;5.15;;;2.13;;
76477;SDS011;65309;49.790;18.972;2023-02-13T07:35:03;4.78;;;2.75;;
76477;SDS011;65309;49.790;18.972;2023-02-13T07:40:06;6.20;;;3.20;;
76477;SDS011;65309;49.790;18.972;2023-02-13T07:45:10;8.23;;;3.28;;
76477;SDS011;65309;49.790;18.972;2023-02-13T07:50:12;9.05;;;3.25;;
76477;SDS011;65309;49.790;18.972;2023-02-13T07:55:14;11.13;;;3.95;;
76477;SDS011;65309;49.790;18.972;2023-02-13T08:00:18;4.80;;;2.67;;
76477;SDS011;65309;49.790;18.972;2023-02-13T08:05:21;7.20;;;2.67;;
76477;SDS011;65309;49.790;18.972;2023-02-13T08:10:24;5.07;;;2.53;;
76477;SDS011;65309;49.790;18.972;2023-02-13T08:15:46;6.50;;;3.22;;
76477;SDS011;65309;49.790;18.972;2023-02-13T08:20:49;4.28;;;1.95;;
76477;SDS011;65309;49.790;18.972;2023-02-13T08:25:51;6.43;;;2.53;;
76477;SDS011;65309;49.790;18.972;2023-02-13T08:30:56;3.60;;;1.80;;
76477;SDS011;65309;49.790;18.972;2023-02-13T08:36:01;1.10;;;0.93;;
76477;SDS011;65309;49.790;18.972;2023-02-13T08:41:04;3.97;;;2.47;;
76477;SDS011;65309;49.790;18.972;2023-02-13T08:46:08;4.57;;;2.55;;
76477;SDS011;65309;49.790;18.972;2023-02-13T08:51:11;3.35;;;2.60;;
76477;SDS011;65309;49.790;18.972;2023-02-13T08:56:14;3.60;;;1.95;;
76477;SDS011;65309;49.790;18.972;2023-02-13T09:01:17;8.52;;;3.95;;
76477;SDS011;65309;49.790;18.972;2023-02-13T09:11:22;3.85;;;2.33;;
76477;SDS011;65309;49.790;18.972;2023-02-13T09:16:25;4.43;;;2.53;;
76477;SDS011;65309;49.790;18.972;2023-02-13T09:21:28;5.50;;;2.60;;
76477;SDS011;65309;49.790;18.972;2023-02-13T09:26:31;5.35;;;2.13;;
76477;SDS011;65309;49.790;18.972;2023-02-13T09:31:35;3.20;;;2.05;;
76477;SDS011;65309;49.790;18.972;2023-02-13T09:36:37;9.88;;;4.03;;
76477;SDS011;65309;49.790;18.972;2023-02-13T09:41:39;9.00;;;4.32;;
76477;SDS011;65309;49.790;18.972;2023-02-13T09:46:47;6.57;;;2.80;;
76477;SDS011;65309;49.790;18.972;2023-02-13T09:51:51;4.60;;;1.60;;
76477;SDS011;65309;49.790;18.972;2023-02-13T09:56:58;5.72;;;3.25;;
76477;SDS011;65309;49.790;18.972;2023-02-13T10:02:12;4.90;;;2.28;;
76477;SDS011;65309;49.790;18.972;2023-02-13T10:07:25;6.70;;;3.47;;
76477;SDS011;65309;49.790;18.972;2023-02-13T10:12:41;4.35;;;2.05;;
76477;SDS011;65309;49.790;18.972;2023-02-13T10:17:55;7.45;;;2.90;;
76477;SDS011;65309;49.790;18.972;2023-02-13T10:23:04;4.63;;;2.20;;
76477;SDS011;65309;49.790;18.972;2023-02-13T10:28:20;7.90;;;2.80;;
76477;SDS011;65309;49.790;18.972;2023-02-13T10:33:34;6.45;;;3.67;;
76477;SDS011;65309;49.790;18.972;2023-02-13T10:38:42;7.28;;;3.40;;
76477;SDS011;65309;49.790;18.972;2023-02-13T10:43:48;6.40;;;3.53;;
76477;SDS011;65309;49.790;18.972;2023-02-13T10:49:12;4.20;;;2.80;;
76477;SDS011;65309;49.790;18.972;2023-02-13T10:54:33;9.85;;;4.57;;
76477;SDS011;65309;49.790;18.972;2023-02-13T10:59:54;7.80;;;4.43;;
76477;SDS011;65309;49.790;18.972;2023-02-13T11:05:11;8.38;;;3.67;;
76477;SDS011;65309;49.790;18.972;2023-02-13T11:10:17;9.38;;;5.43;;
76477;SDS011;65309;49.790;18.972;2023-02-13T11:15:22;9.25;;;6.40;;
76477;SDS011;65309;49.790;18.972;2023-02-13T11:20:30;7.93;;;4.82;;
76477;SDS011;65309;49.790;18.972;2023-02-13T11:25:34;9.60;;;6.30;;
76477;SDS011;65309;49.790;18.972;2023-02-13T11:30:37;5.93;;;3.53;;
76477;SDS011;65309;49.790;18.972;2023-02-13T11:35:40;8.73;;;4.13;;
76477;SDS011;65309;49.790;18.972;2023-02-13T11:40:43;12.20;;;5.57;;
76477;SDS011;65309;49.790;18.972;2023-02-13T11:45:58;6.68;;;4.65;;
76477;SDS011;65309;49.790;18.972;2023-02-13T11:51:04;4.10;;;2.53;;
76477;SDS011;65309;49.790;18.972;2023-02-13T11:56:07;7.78;;;5.28;;
76477;SDS011;65309;49.790;18.972;2023-02-13T12:01:23;13.70;;;6.78;;
76477;SDS011;65309;49.790;18.972;2023-02-13T12:06:29;10.85;;;6.07;;
76477;SDS011;65309;49.790;18.972;2023-02-13T12:11:34;11.55;;;4.65;;
76477;SDS011;65309;49.790;18.972;2023-02-13T12:16:40;5.57;;;3.05;;
76477;SDS011;65309;49.790;18.972;2023-02-13T12:21:51;9.23;;;3.47;;
76477;SDS011;65309;49.790;18.972;2023-02-13T12:27:03;3.85;;;2.88;;
76477;SDS011;65309;49.790;18.972;2023-02-13T12:32:16;6.22;;;3.85;;
76477;SDS011;65309;49.790;18.972;2023-02-13T12:37:28;6.35;;;2.83;;
76477;SDS011;65309;49.790;18.972;2023-02-13T12:42:42;4.43;;;2.85;;
76477;SDS011;65309;49.790;18.972;2023-02-13T12:47:58;5.22;;;3.65;;
76477;SDS011;65309;49.790;18.972;2023-02-13T12:53:21;12.05;;;7.82;;
76477;SDS011;65309;49.790;18.972;2023-02-13T12:58:48;15.05;;;7.63;;
76477;SDS011;65309;49.790;18.972;2023-02-13T13:04:01;7.85;;;4.32;;
76477;SDS011;65309;49.790;18.972;2023-02-13T13:09:22;5.22;;;3.67;;
76477;SDS011;65309;49.790;18.972;2023-02-13T13:14:37;5.90;;;3.83;;
76477;SDS011;65309;49.790;18.972;2023-02-13T13:19:46;7.50;;;4.97;;
76477;SDS011;65309;49.790;18.972;2023-02-13T13:24:59;7.63;;;4.60;;
76477;SDS011;65309;49.790;18.972;2023-02-13T13:35:18;7.18;;;4.13;;
76477;SDS011;65309;49.790;18.972;2023-02-13T13:40:27;7.60;;;3.78;;
76477;SDS011;65309;49.790;18.972;2023-02-13T13:45:37;6.93;;;4.80;;
76477;SDS011;65309;49.790;18.972;2023-02-13T13:50:43;5.50;;;4.57;;
76477;SDS011;65309;49.790;18.972;2023-02-13T13:56:05;6.35;;;3.80;;
76477;SDS011;65309;49.790;18.972;2023-02-13T14:01:15;8.57;;;6.22;;
76477;SDS011;65309;49.790;18.972;2023-02-13T14:06:24;6.60;;;4.35;;
76477;SDS011;65309;49.790;18.972;2023-02-13T14:11:31;11.52;;;7.60;;
76477;SDS011;65309;49.790;18.972;2023-02-13T14:16:36;11.55;;;7.43;;
76477;SDS011;65309;49.790;18.972;2023-02-13T14:21:39;13.18;;;7.95;;
76477;SDS011;65309;49.790;18.972;2023-02-13T14:26:48;13.88;;;7.35;;
76477;SDS011;65309;49.790;18.972;2023-02-13T14:31:59;15.98;;;6.57;;
76477;SDS011;65309;49.790;18.972;2023-02-13T14:37:18;19.63;;;8.90;;
76477;SDS011;65309;49.790;18.972;2023-02-13T14:42:33;7.85;;;5.97;;
76477;SDS011;65309;49.790;18.972;2023-02-13T14:47:38;12.88;;;7.70;;
76477;SDS011;65309;49.790;18.972;2023-02-13T14:52:43;15.75;;;7.85;;
76477;SDS011;65309;49.790;18.972;2023-02-13T14:57:50;13.43;;;7.15;;
76477;SDS011;65309;49.790;18.972;2023-02-13T15:02:55;11.68;;;7.22;;
76477;SDS011;65309;49.790;18.972;2023-02-13T15:08:04;11.07;;;5.25;;
76477;SDS011;65309;49.790;18.972;2023-02-13T15:13:13;8.32;;;5.63;;
76477;SDS011;65309;49.790;18.972;2023-02-13T15:18:19;11.32;;;6.10;;
76477;SDS011;65309;49.790;18.972;2023-02-13T15:23:25;11.52;;;6.65;;
76477;SDS011;65309;49.790;18.972;2023-02-13T15:28:32;13.18;;;7.00;;
76477;SDS011;65309;49.790;18.972;2023-02-13T15:33:41;10.27;;;6.18;;
76477;SDS011;65309;49.790;18.972;2023-02-13T15:38:45;11.00;;;5.68;;
76477;SDS011;65309;49.790;18.972;2023-02-13T15:43:48;16.88;;;9.60;;
76477;SDS011;65309;49.790;18.972;2023-02-13T15:48:54;18.70;;;9.77;;
76477;SDS011;65309;49.790;18.972;2023-02-13T15:53:59;7.45;;;6.03;;
76477;SDS011;65309;49.790;18.972;2023-02-13T15:59:04;18.58;;;11.45;;
76477;SDS011;65309;49.790;18.972;2023-02-13T16:04:06;10.52;;;7.28;;
76477;SDS011;65309;49.790;18.972;2023-02-13T16:09:22;9.88;;;5.32;;
76477;SDS011;65309;49.790;18.972;2023-02-13T16:14:29;20.83;;;9.35;;
76477;SDS011;65309;49.790;18.972;2023-02-13T16:19:35;16.75;;;10.32;;
76477;SDS011;65309;49.790;18.972;2023-02-13T16:24:46;12.43;;;6.18;;
76477;SDS011;65309;49.790;18.972;2023-02-13T16:29:53;18.92;;;9.40;;
76477;SDS011;65309;49.790;18.972;2023-02-13T16:40:34;19.85;;;11.18;;
76477;SDS011;65309;49.790;18.972;2023-02-13T16:45:41;18.95;;;11.75;;
76477;SDS011;65309;49.790;18.972;2023-02-13T16:50:44;21.23;;;11.23;;
76477;SDS011;65309;49.790;18.972;2023-02-13T16:55:46;20.77;;;12.57;;
76477;SDS011;65309;49.790;18.972;2023-02-13T17:00:49;26.23;;;14.15;;
76477;SDS011;65309;49.790;18.972;2023-02-13T17:11:00;18.27;;;11.10;;
76477;SDS011;65309;49.790;18.972;2023-02-13T17:16:07;14.50;;;9.35;;
76477;SDS011;65309;49.790;18.972;2023-02-13T17:21:10;18.40;;;12.10;;
76477;SDS011;65309;49.790;18.972;2023-02-13T17:26:13;16.63;;;10.32;;
76477;SDS011;65309;49.790;18.972;2023-02-13T17:31:16;23.77;;;14.43;;
76477;SDS011;65309;49.790;18.972;2023-02-13T17:36:18;23.55;;;11.70;;
76477;SDS011;65309;49.790;18.972;2023-02-13T17:41:20;24.13;;;14.63;;
76477;SDS011;65309;49.790;18.972;2023-02-13T17:46:23;17.40;;;10.40;;
76477;SDS011;65309;49.790;18.972;2023-02-13T17:51:25;15.10;;;9.05;;
76477;SDS011;65309;49.790;18.972;2023-02-13T17:56:27;21.88;;;12.73;;
76477;SDS011;65309;49.790;18.972;2023-02-13T18:01:31;14.13;;;9.23;;
76477;SDS011;65309;49.790;18.972;2023-02-13T18:07:32;20.98;;;11.48;;
76477;SDS011;65309;49.790;18.972;2023-02-13T18:13:32;24.00;;;12.30;;
76477;SDS011;65309;49.790;18.972;2023-02-13T18:19:35;7.18;;;4.70;;
76477;SDS011;65309;49.790;18.972;2023-02-13T18:25:36;24.02;;;12.95;;
76477;SDS011;65309;49.790;18.972;2023-02-13T18:31:37;5.65;;;3.70;;
76477;SDS011;65309;49.790;18.972;2023-02-13T18:37:39;16.27;;;9.90;;
76477;SDS011;65309;49.790;18.972;2023-02-13T18:43:40;13.60;;;7.05;;
76477;SDS011;65309;49.790;18.972;2023-02-13T18:49:41;10.60;;;7.18;;
76477;SDS011;65309;49.790;18.972;2023-02-13T18:55:43;10.82;;;5.95;;
76477;SDS011;65309;49.790;18.972;2023-02-13T19:01:44;13.45;;;9.20;;
76477;SDS011;65309;49.790;18.972;2023-02-13T19:07:44;15.63;;;8.20;;
76477;SDS011;65309;49.790;18.972;2023-02-13T19:13:46;12.00;;;7.22;;
76477;SDS011;65309;49.790;18.972;2023-02-13T19:19:48;12.30;;;6.80;;
76477;SDS011;65309;49.790;18.972;2023-02-13T19:31:52;12.27;;;7.63;;
76477;SDS011;65309;49.790;18.972;2023-02-13T19:37:54;7.63;;;4.32;;
76477;SDS011;65309;49.790;18.972;2023-02-13T19:43:55;11.15;;;5.50;;
76477;SDS011;65309;49.790;18.972;2023-02-13T19:55:58;11.45;;;5.88;;
76477;SDS011;65309;49.790;18.972;2023-02-13T20:02:02;10.15;;;5.20;;
76477;SDS011;65309;49.790;18.972;2023-02-13T20:08:05;10.80;;;4.95;;
76477;SDS011;65309;49.790;18.972;2023-02-13T20:14:09;12.55;;;7.47;;
76477;SDS011;65309;49.790;18.972;2023-02-13T20:20:10;7.07;;;4.28;;
76477;SDS011;65309;49.790;18.972;2023-02-13T20:26:13;14.02;;;8.23;;
76477;SDS011;65309;49.790;18.972;2023-02-13T20:32:14;11.15;;;7.20;;
76477;SDS011;65309;49.790;18.972;2023-02-13T20:38:15;10.27;;;6.43;;
76477;SDS011;65309;49.790;18.972;2023-02-13T20:44:17;14.55;;;7.35;;
76477;SDS011;65309;49.790;18.972;2023-02-13T20:50:18;10.23;;;6.53;;
76477;SDS011;65309;49.790;18.972;2023-02-13T20:56:19;15.23;;;7.78;;
76477;SDS011;65309;49.790;18.972;2023-02-13T21:02:21;11.23;;;5.95;;
76477;SDS011;65309;49.790;18.972;2023-02-13T21:08:22;10.88;;;5.07;;
76477;SDS011;65309;49.790;18.972;2023-02-13T21:20:24;8.50;;;5.43;;
76477;SDS011;65309;49.790;18.972;2023-02-13T21:26:26;7.40;;;6.22;;
76477;SDS011;65309;49.790;18.972;2023-02-13T21:32:28;10.00;;;5.18;;
76477;SDS011;65309;49.790;18.972;2023-02-13T21:44:30;7.70;;;4.80;;
76477;SDS011;65309;49.790;18.972;2023-02-13T21:50:31;6.40;;;3.92;;
76477;SDS011;65309;49.790;18.972;2023-02-13T21:56:34;10.38;;;5.47;;
76477;SDS011;65309;49.790;18.972;2023-02-13T22:02:36;9.95;;;6.20;;
76477;SDS011;65309;49.790;18.972;2023-02-13T22:08:36;12.95;;;7.13;;
76477;SDS011;65309;49.790;18.972;2023-02-13T22:20:38;9.63;;;5.30;;
76477;SDS011;65309;49.790;18.972;2023-02-13T22:26:40;9.93;;;6.82;;
76477;SDS011;65309;49.790;18.972;2023-02-13T22:32:42;10.32;;;4.60;;
76477;SDS011;65309;49.790;18.972;2023-02-13T22:38:46;9.70;;;6.10;;
76477;SDS011;65309;49.790;18.972;2023-02-13T22:44:03;9.07;;;6.05;;
76477;SDS011;65309;49.790;18.972;2023-02-13T22:49:07;7.95;;;4.95;;
76477;SDS011;65309;49.790;18.972;2023-02-13T22:54:39;9.70;;;4.70;;
76477;SDS011;65309;49.790;18.972;2023-02-13T23:00:40;9.40;;;5.85;;
76477;SDS011;65309;49.790;18.972;2023-02-13T23:05:43;6.25;;;4.03;;
76477;SDS011;65309;49.790;18.972;2023-02-13T23:11:44;9.80;;;5.82;;
76477;SDS011;65309;49.790;18.972;2023-02-13T23:17:46;11.20;;;6.22;;
76477;SDS011;65309;49.790;18.972;2023-02-13T23:23:52;12.07;;;6.80;;
76477;SDS011;65309;49.790;18.972;2023-02-13T23:29:52;13.52;;;8.27;;
76477;SDS011;65309;49.790;18.972;2023-02-13T23:35:34;19.50;;;8.02;;
76477;SDS011;65309;49.790;18.972;2023-02-13T23:41:36;14.30;;;7.30;;
76477;SDS011;65309;49.790;18.972;2023-02-13T23:47:37;12.63;;;7.68;;
76477;SDS011;65309;49.790;18.972;2023-02-13T23:53:37;20.27;;;11.98;;
76477;SDS011;65309;49.790;18.972;2023-02-13T23:59:40;19.80;;;10.40;;
